createdAt,value
2023-04-09T00:01:11.892Z,49798.78
2023-04-09T00:03:39.193Z,49750.94
2023-04-09T00:06:06.774Z,49832.66
2023-04-09T00:08:33.721Z,49774.84
2023-04-09T00:11:00.504Z,49744.94
2023-04-09T00:13:38.482Z,49780.84
2023-04-09T00:16:06.657Z,49770.88
2023-04-09T00:18:33.374Z,49792.78
2023-04-09T00:21:00.103Z,49734.97
2023-04-09T00:23:26.805Z,49792.78
2023-04-09T00:25:53.666Z,49715.03
2023-04-09T00:28:20.670Z,49782.81
2023-04-09T00:30:47.390Z,49760.91
2023-04-09T00:33:14.080Z,49776.84
2023-04-09T00:35:41.153Z,49762.88
2023-04-09T00:38:07.922Z,49764.88
2023-04-09T00:40:34.621Z,49758.91
2023-04-09T00:43:02.483Z,49754.91
2023-04-09T00:45:29.317Z,49766.88
2023-04-09T00:47:56.200Z,49782.81
2023-04-09T00:50:22.981Z,49731.00
2023-04-09T00:52:49.769Z,49766.88
2023-04-09T00:55:17.971Z,49754.91
2023-04-09T00:57:44.692Z,49790.81
2023-04-09T01:00:13.170Z,49814.72
2023-04-09T01:02:40.849Z,49778.84
2023-04-09T01:05:08.229Z,49774.84
2023-04-09T01:08:13.567Z,49748.94
2023-04-09T01:10:54.108Z,49792.78
2023-04-09T01:13:42.302Z,49748.94
2023-04-09T01:16:12.237Z,49790.81
2023-04-09T01:19:02.192Z,49774.84
2023-04-09T01:21:34.351Z,49782.81
2023-04-09T01:24:26.532Z,49766.88
2023-04-09T01:27:06.818Z,49758.91
2023-04-09T01:29:53.266Z,49774.84
2023-04-09T01:32:21.171Z,49786.81
2023-04-09T01:34:49.275Z,49733.00
2023-04-09T01:37:16.506Z,49736.97
2023-04-09T01:39:43.383Z,49758.91
2023-04-09T01:42:12.292Z,49786.81
2023-04-09T01:44:40.481Z,49770.88
2023-04-09T01:47:08.928Z,49784.81
2023-04-09T01:49:36.293Z,49782.81
2023-04-09T01:52:03.460Z,49810.75
2023-04-09T01:54:30.288Z,49782.81
2023-04-09T01:56:57.833Z,49782.81
2023-04-09T01:59:24.743Z,49782.81
2023-04-09T02:01:59.864Z,49782.81
2023-04-09T02:04:34.397Z,49786.81
2023-04-09T02:07:15.540Z,49750.94
2023-04-09T02:09:46.102Z,49794.78
2023-04-09T02:12:16.794Z,49758.91
2023-04-09T02:14:47.194Z,49798.78
2023-04-09T02:17:13.950Z,49794.78
2023-04-09T02:19:40.745Z,49772.84
2023-04-09T02:22:07.961Z,49764.88
2023-04-09T02:24:34.694Z,49764.88
2023-04-09T02:27:02.230Z,49746.94
2023-04-09T02:29:29.056Z,49766.88
2023-04-09T02:31:55.705Z,49772.84
2023-04-09T02:34:23.216Z,49758.91
2023-04-09T02:36:49.900Z,49770.88
2023-04-09T02:39:16.787Z,49782.81
2023-04-09T02:41:44.030Z,49780.84
2023-04-09T02:44:10.759Z,49770.88
2023-04-09T02:46:38.816Z,49776.84
2023-04-09T02:49:05.626Z,49768.88
2023-04-09T02:51:34.833Z,49754.91
2023-04-09T02:54:02.045Z,49794.78
2023-04-09T02:56:28.790Z,49780.84
2023-04-09T02:58:55.620Z,49768.88
2023-04-09T03:01:22.851Z,49782.81
2023-04-09T03:03:50.204Z,49782.81
2023-04-09T03:06:18.514Z,49794.78
2023-04-09T03:08:45.642Z,49782.81
2023-04-09T03:11:12.414Z,49784.81
2023-04-09T03:13:39.137Z,49786.81
2023-04-09T03:16:06.328Z,49758.91
2023-04-09T03:18:33.054Z,49764.88
2023-04-09T03:20:59.802Z,49770.88
2023-04-09T03:23:31.007Z,49800.78
2023-04-09T03:26:06.265Z,49750.94
2023-04-09T03:28:45.392Z,49778.84
2023-04-09T03:31:14.011Z,49780.84
2023-04-09T03:33:42.298Z,49774.84
2023-04-09T03:36:10.117Z,49768.88
2023-04-09T03:38:57.193Z,49758.91
2023-04-09T03:41:31.521Z,49754.91
2023-04-09T03:44:02.556Z,49796.78
2023-04-09T03:46:36.334Z,49762.88
2023-04-09T03:49:03.434Z,49758.91
2023-04-09T03:51:38.750Z,49792.78
2023-04-09T03:54:05.634Z,49780.84
2023-04-09T03:56:33.102Z,49802.75
2023-04-09T03:59:01.331Z,49792.78
2023-04-09T04:01:36.799Z,49790.81
2023-04-09T04:04:03.663Z,49766.88
2023-04-09T04:06:35.970Z,49836.66
2023-04-09T04:09:22.980Z,49750.94
2023-04-09T04:11:58.966Z,49774.84
2023-04-09T04:14:39.883Z,49766.88
2023-04-09T04:17:17.502Z,49806.75
2023-04-09T04:19:44.463Z,49770.88
2023-04-09T04:22:11.306Z,49820.69
2023-04-09T04:24:41.473Z,49776.84
2023-04-09T04:27:08.547Z,49816.72
2023-04-09T04:29:37.652Z,49760.91
2023-04-09T04:32:11.723Z,49808.75
2023-04-09T04:34:38.819Z,49782.81
2023-04-09T04:37:15.445Z,49842.63
2023-04-09T04:39:42.315Z,49838.66
2023-04-09T04:42:12.680Z,49798.78
2023-04-09T04:44:39.829Z,49776.84
2023-04-09T04:47:26.845Z,49806.75
2023-04-09T04:49:53.611Z,49814.72
2023-04-09T04:52:21.412Z,49788.81
2023-04-09T04:54:51.458Z,49830.66
2023-04-09T04:57:22.010Z,49818.72
2023-04-09T04:59:48.789Z,49830.66
2023-04-09T05:02:17.491Z,49802.75
2023-04-09T05:05:02.095Z,49824.69
2023-04-09T05:07:36.003Z,49806.75
2023-04-09T05:10:03.654Z,49838.66
2023-04-09T05:12:36.514Z,49848.63
2023-04-09T05:15:04.542Z,49778.84
2023-04-09T05:17:31.430Z,49834.66
2023-04-09T05:19:58.186Z,49784.81
2023-04-09T05:22:44.086Z,49812.72
2023-04-09T05:25:11.067Z,49822.69
2023-04-09T05:27:40.767Z,49818.72
2023-04-09T05:30:08.705Z,49814.72
2023-04-09T05:32:35.634Z,49786.81
2023-04-09T05:35:03.047Z,49854.59
2023-04-09T05:37:31.388Z,49822.69
2023-04-09T05:39:58.066Z,49842.63
2023-04-09T05:42:25.209Z,49824.69
2023-04-09T05:45:05.488Z,49796.78
2023-04-09T05:47:32.513Z,49784.81
2023-04-09T05:50:04.503Z,49838.66
2023-04-09T05:52:32.177Z,49780.84
2023-04-09T05:54:59.071Z,49818.72
2023-04-09T05:57:38.643Z,49826.69
2023-04-09T06:00:08.198Z,49790.81
2023-04-09T06:02:43.208Z,49752.91
2023-04-09T06:05:10.334Z,49834.66
2023-04-09T06:07:37.090Z,49798.78
2023-04-09T06:10:04.002Z,49792.78
2023-04-09T06:12:30.656Z,49804.75
2023-04-09T06:14:57.300Z,49800.78
2023-04-09T06:17:24.036Z,49854.59
2023-04-09T06:19:50.876Z,49818.72
2023-04-09T06:22:17.575Z,49808.75
2023-04-09T06:24:44.345Z,49806.75
2023-04-09T06:27:11.253Z,49808.75
2023-04-09T06:29:37.911Z,49820.69
2023-04-09T06:32:05.785Z,49826.69
2023-04-09T06:34:32.406Z,49798.78
2023-04-09T06:36:59.143Z,49796.78
2023-04-09T06:39:25.791Z,49808.75
2023-04-09T06:41:52.609Z,49810.75
2023-04-09T06:44:37.529Z,49800.78
2023-04-09T06:47:04.248Z,49786.81
2023-04-09T06:49:31.066Z,49788.81
2023-04-09T06:51:58.106Z,49820.69
2023-04-09T06:54:24.999Z,49788.81
2023-04-09T06:56:51.919Z,49794.78
2023-04-09T06:59:18.692Z,49778.84
2023-04-09T07:01:45.917Z,49784.81
2023-04-09T07:04:12.822Z,49788.81
2023-04-09T07:06:40.474Z,49804.75
2023-04-09T07:09:07.562Z,49784.81
2023-04-09T07:11:34.224Z,49760.91
2023-04-09T07:14:00.943Z,49758.91
2023-04-09T07:16:27.610Z,49758.91
2023-04-09T07:18:54.261Z,49776.84
2023-04-09T07:21:21.032Z,49826.69
2023-04-09T07:23:47.957Z,49766.88
2023-04-09T07:26:14.886Z,49786.81
2023-04-09T07:28:42.308Z,49782.81
2023-04-09T07:31:09.535Z,49774.84
2023-04-09T07:33:36.246Z,49786.81
2023-04-09T07:36:03.199Z,49796.78
2023-04-09T07:38:30.377Z,49812.72
2023-04-09T07:40:57.146Z,49784.81
2023-04-09T07:43:23.892Z,49744.94
2023-04-09T07:45:53.334Z,49802.75
2023-04-09T07:48:20.028Z,49778.84
2023-04-09T07:50:46.711Z,49774.84
2023-04-09T07:53:13.434Z,49774.84
2023-04-09T07:55:41.019Z,49778.84
2023-04-09T07:58:09.952Z,49762.88
2023-04-09T08:00:39.089Z,49796.78
2023-04-09T08:03:05.986Z,49774.84
2023-04-09T08:05:32.727Z,49774.84
2023-04-09T08:07:59.380Z,49758.91
2023-04-09T08:10:26.124Z,49778.84
2023-04-09T08:12:52.915Z,49733.00
2023-04-09T08:15:20.086Z,49738.97
2023-04-09T08:17:46.864Z,49782.81
2023-04-09T08:20:13.757Z,49790.81
2023-04-09T08:22:41.217Z,49729.00
2023-04-09T08:25:08.220Z,49760.91
2023-04-09T08:27:36.101Z,49721.03
2023-04-09T08:30:03.712Z,49731.00
2023-04-09T08:32:30.538Z,49766.88
2023-04-09T08:34:57.351Z,49756.91
2023-04-09T08:37:24.051Z,49762.88
2023-04-09T08:39:50.948Z,49752.91
2023-04-09T08:42:19.049Z,49748.94
2023-04-09T08:44:46.272Z,49733.00
2023-04-09T08:47:13.563Z,49750.94
2023-04-09T08:49:41.326Z,49750.94
2023-04-09T08:52:08.368Z,49754.91
2023-04-09T08:54:35.636Z,49744.94
2023-04-09T08:57:05.456Z,49770.88
2023-04-09T08:59:36.832Z,49780.84
2023-04-09T09:02:07.834Z,49746.94
2023-04-09T09:04:50.921Z,49770.88
2023-04-09T09:07:17.791Z,49764.88
2023-04-09T09:09:58.769Z,49734.97
2023-04-09T09:12:34.661Z,49719.03
2023-04-09T09:15:01.587Z,49778.84
2023-04-09T09:17:28.399Z,49762.88
2023-04-09T09:19:55.212Z,49738.97
2023-04-09T09:22:21.945Z,49723.03
2023-04-09T09:24:50.626Z,49719.03
2023-04-09T09:27:39.621Z,49742.94
2023-04-09T09:30:08.587Z,49717.03
2023-04-09T09:32:35.926Z,49727.00
2023-04-09T09:35:04.758Z,49729.00
2023-04-09T09:37:32.135Z,49693.13
2023-04-09T09:39:59.907Z,49733.00
2023-04-09T09:42:27.585Z,49679.16
2023-04-09T09:44:55.399Z,49707.06
2023-04-09T09:47:23.181Z,49727.00
2023-04-09T09:49:52.546Z,49734.97
2023-04-09T09:52:28.330Z,49731.00
2023-04-09T09:54:58.864Z,49742.94
2023-04-09T09:57:30.655Z,49715.03
2023-04-09T10:00:08.068Z,49734.97
2023-04-09T10:02:48.307Z,49727.00
2023-04-09T10:05:15.788Z,49725.00
2023-04-09T10:07:43.587Z,49729.00
2023-04-09T10:10:10.668Z,49695.09
2023-04-09T10:12:38.787Z,49715.03
2023-04-09T10:15:06.382Z,49746.94
2023-04-09T10:17:33.083Z,49738.97
2023-04-09T10:20:13.252Z,49679.16
2023-04-09T10:22:40.375Z,49711.06
2023-04-09T10:25:08.131Z,49719.03
2023-04-09T10:27:34.929Z,49729.00
2023-04-09T10:30:01.803Z,49719.03
2023-04-09T10:32:36.201Z,49713.06
2023-04-09T10:35:04.246Z,49691.13
2023-04-09T10:37:30.964Z,49731.00
2023-04-09T10:39:58.014Z,49679.16
2023-04-09T10:42:35.268Z,49715.03
2023-04-09T10:45:08.421Z,49695.09
2023-04-09T10:47:40.481Z,49693.13
2023-04-09T10:50:30.871Z,49667.19
2023-04-09T10:53:00.334Z,49695.09
2023-04-09T10:55:38.437Z,49707.06
2023-04-09T10:58:07.184Z,49719.03
2023-04-09T11:00:46.457Z,49715.03
2023-04-09T11:03:29.013Z,49681.16
2023-04-09T11:06:09.074Z,49677.16
2023-04-09T11:08:37.947Z,49707.06
2023-04-09T11:11:04.885Z,49671.19
2023-04-09T11:13:32.882Z,49685.13
2023-04-09T11:16:01.423Z,49709.06
2023-04-09T11:18:30.745Z,49659.22
2023-04-09T11:20:59.560Z,49679.16
2023-04-09T11:23:27.491Z,49719.03
2023-04-09T11:25:55.308Z,49655.25
2023-04-09T11:28:23.128Z,49647.25
2023-04-09T11:30:52.961Z,49667.19
2023-04-09T11:33:20.395Z,49693.13
2023-04-09T11:35:48.340Z,49655.25
2023-04-09T11:38:15.300Z,49675.19
2023-04-09T11:40:49.487Z,49665.22
2023-04-09T11:43:17.117Z,49734.97
2023-04-09T11:45:44.429Z,49681.16
2023-04-09T11:48:12.273Z,49681.16
2023-04-09T11:50:38.971Z,49631.31
2023-04-09T11:53:19.497Z,49659.22
2023-04-09T11:55:51.575Z,49637.28
2023-04-09T11:58:19.081Z,49635.31
2023-04-09T12:00:46.152Z,49663.22
2023-04-09T12:03:13.499Z,49679.16
2023-04-09T12:05:50.648Z,49627.31
2023-04-09T12:08:23.817Z,49653.25
2023-04-09T12:10:53.565Z,49643.28
2023-04-09T12:13:20.964Z,49663.22
2023-04-09T12:15:49.214Z,49679.16
2023-04-09T12:18:15.996Z,49675.19
2023-04-09T12:20:44.763Z,49697.09
2023-04-09T12:23:12.549Z,49653.25
2023-04-09T12:25:40.724Z,49675.19
2023-04-09T12:28:08.815Z,49659.22
2023-04-09T12:30:36.276Z,49671.19
2023-04-09T12:33:04.102Z,49639.28
2023-04-09T12:35:30.971Z,49671.19
2023-04-09T12:37:59.385Z,49667.19
2023-04-09T12:40:26.452Z,49671.19
2023-04-09T12:42:54.104Z,49675.19
2023-04-09T12:45:21.473Z,49667.19
2023-04-09T12:47:48.753Z,49649.25
2023-04-09T12:50:18.807Z,49613.38
2023-04-09T12:52:46.315Z,49635.31
2023-04-09T12:55:14.069Z,49643.28
2023-04-09T12:57:42.320Z,49669.19
2023-04-09T13:00:09.776Z,49621.34
2023-04-09T13:02:36.965Z,49663.22
2023-04-09T13:05:04.647Z,49611.38
2023-04-09T13:07:31.448Z,49585.47
2023-04-09T13:09:58.206Z,49619.34
2023-04-09T13:12:25.463Z,49635.31
2023-04-09T13:14:54.420Z,49659.22
2023-04-09T13:17:21.789Z,49631.31
2023-04-09T13:19:48.802Z,49631.31
2023-04-09T13:22:15.506Z,49627.31
2023-04-09T13:24:43.288Z,49591.44
2023-04-09T13:27:11.292Z,49619.34
2023-04-09T13:29:38.561Z,49623.34
2023-04-09T13:32:10.861Z,49643.28
2023-04-09T13:34:38.754Z,49659.22
2023-04-09T13:37:05.708Z,49639.28
2023-04-09T13:39:33.030Z,49627.31
2023-04-09T13:42:02.503Z,49615.38
2023-04-09T13:44:32.644Z,49549.59
2023-04-09T13:46:59.502Z,49587.47
2023-04-09T13:49:27.472Z,49563.53
2023-04-09T13:51:54.274Z,49613.38
2023-04-09T13:54:20.985Z,49603.41
2023-04-09T13:56:47.748Z,49611.38
2023-04-09T13:59:14.402Z,49625.34
2023-04-09T14:01:41.362Z,49569.50
2023-04-09T14:04:08.379Z,49553.56
2023-04-09T14:06:35.288Z,49563.53
2023-04-09T14:09:02.065Z,49513.69
2023-04-09T14:11:28.953Z,49507.72
2023-04-09T14:13:56.023Z,49547.59
2023-04-09T14:16:23.713Z,49547.59
2023-04-09T14:18:50.811Z,49551.56
2023-04-09T14:21:18.484Z,49619.34
2023-04-09T14:23:45.312Z,49627.31
2023-04-09T14:26:12.104Z,49647.25
2023-04-09T14:28:38.893Z,49581.47
2023-04-09T14:31:06.395Z,49619.34
2023-04-09T14:33:33.074Z,49637.28
2023-04-09T14:35:59.904Z,49649.25
2023-04-09T14:38:26.811Z,49605.41
2023-04-09T14:40:53.621Z,49597.44
2023-04-09T14:43:20.506Z,49531.63
2023-04-09T14:45:47.457Z,49601.41
2023-04-09T14:48:14.159Z,49609.38
2023-04-09T14:50:41.249Z,49619.34
2023-04-09T14:53:08.105Z,49561.53
2023-04-09T14:55:34.804Z,49603.41
2023-04-09T14:58:04.450Z,49559.56
2023-04-09T15:00:31.964Z,49623.34
2023-04-09T15:02:59.276Z,49627.31
2023-04-09T15:05:27.176Z,49585.47
2023-04-09T15:07:55.575Z,49503.72
2023-04-09T15:10:22.258Z,49553.56
2023-04-09T15:12:49.008Z,49515.69
2023-04-09T15:15:15.690Z,49503.72
2023-04-09T15:17:42.529Z,49519.69
2023-04-09T15:20:09.666Z,49551.56
2023-04-09T15:22:36.429Z,49559.56
2023-04-09T15:25:03.319Z,49519.69
2023-04-09T15:27:30.301Z,49537.63
2023-04-09T15:29:57.015Z,49511.72
2023-04-09T15:32:26.421Z,49491.78
2023-04-09T15:34:53.136Z,49519.69
2023-04-09T15:37:22.995Z,49499.75
2023-04-09T15:39:49.533Z,49551.56
2023-04-09T15:42:20.349Z,49547.59
2023-04-09T15:44:47.072Z,49583.47
2023-04-09T15:47:13.911Z,49575.50
2023-04-09T15:49:41.264Z,49543.59
2023-04-09T15:52:09.234Z,49569.50
2023-04-09T15:54:36.039Z,49515.69
2023-04-09T15:57:05.644Z,49515.69
2023-04-09T15:59:32.365Z,49493.75
2023-04-09T16:01:59.848Z,49513.69
2023-04-09T16:04:27.529Z,49483.81
2023-04-09T16:06:55.460Z,49551.56
2023-04-09T16:09:22.822Z,49537.63
2023-04-09T16:11:50.995Z,49537.63
2023-04-09T16:14:17.849Z,49543.59
2023-04-09T16:16:49.535Z,49543.59
2023-04-09T16:19:20.423Z,49495.75
2023-04-09T16:21:47.521Z,49561.53
2023-04-09T16:24:14.915Z,49531.63
2023-04-09T16:26:45.008Z,49535.63
2023-04-09T16:29:12.737Z,49513.69
2023-04-09T16:31:42.217Z,49529.66
2023-04-09T16:34:09.140Z,49523.66
2023-04-09T16:36:37.131Z,49553.56
2023-04-09T16:39:04.794Z,49551.56
2023-04-09T16:41:31.699Z,49547.59
2023-04-09T16:43:58.556Z,49527.66
2023-04-09T16:46:25.421Z,49545.59
2023-04-09T16:48:52.395Z,49513.69
2023-04-09T16:51:19.396Z,49525.66
2023-04-09T16:53:46.215Z,49531.63
2023-04-09T16:56:12.968Z,49503.72
2023-04-09T16:58:39.837Z,49577.50
2023-04-09T17:01:06.594Z,49519.69
2023-04-09T17:03:33.417Z,49531.63
2023-04-09T17:06:00.350Z,49551.56
2023-04-09T17:08:27.117Z,49543.59
2023-04-09T17:11:01.884Z,49505.72
2023-04-09T17:13:29.810Z,49599.41
2023-04-09T17:15:56.833Z,49605.41
2023-04-09T17:18:23.982Z,49563.53
2023-04-09T17:20:51.039Z,49589.44
2023-04-09T17:23:17.989Z,49595.44
2023-04-09T17:25:44.866Z,49585.47
2023-04-09T17:28:11.940Z,49569.50
2023-04-09T17:30:38.673Z,49559.56
2023-04-09T17:33:05.890Z,49557.56
2023-04-09T17:35:32.842Z,49595.44
2023-04-09T17:38:01.251Z,49583.47
2023-04-09T17:40:28.549Z,49583.47
2023-04-09T17:42:55.634Z,49567.53
2023-04-09T17:45:22.302Z,49585.47
2023-04-09T17:47:51.105Z,49611.38
2023-04-09T17:50:18.366Z,49625.34
2023-04-09T17:52:45.126Z,49627.31
2023-04-09T17:55:12.952Z,49623.34
2023-04-09T17:57:40.149Z,49623.34
2023-04-09T18:00:08.254Z,49623.34
2023-04-09T18:02:46.088Z,49617.38
2023-04-09T18:05:13.226Z,49623.34
2023-04-09T18:07:40.026Z,49635.31
2023-04-09T18:10:07.075Z,49645.28
2023-04-09T18:12:33.738Z,49675.19
2023-04-09T18:15:00.401Z,49669.19
2023-04-09T18:17:27.189Z,49663.22
2023-04-09T18:19:54.789Z,49655.25
2023-04-09T18:22:21.813Z,49647.25
2023-04-09T18:24:48.584Z,49655.25
2023-04-09T18:27:16.247Z,49661.22
2023-04-09T18:29:43.032Z,49623.34
2023-04-09T18:32:09.694Z,49641.28
2023-04-09T18:34:37.393Z,49633.31
2023-04-09T18:37:04.065Z,49631.31
2023-04-09T18:39:31.018Z,49643.28
2023-04-09T18:41:57.979Z,49643.28
2023-04-09T18:44:24.678Z,49649.25
2023-04-09T18:46:52.162Z,49675.19
2023-04-09T18:49:18.909Z,49659.22
2023-04-09T18:51:45.638Z,49705.06
2023-04-09T18:54:12.726Z,49695.09
2023-04-09T18:56:40.014Z,49653.25
2023-04-09T18:59:06.841Z,49657.22
2023-04-09T19:01:33.605Z,49621.34
2023-04-09T19:04:00.529Z,49695.09
2023-04-09T19:06:28.002Z,49707.06
2023-04-09T19:08:58.137Z,49709.06
2023-04-09T19:11:26.079Z,49675.19
2023-04-09T19:13:52.683Z,49659.22
2023-04-09T19:16:20.960Z,49643.28
2023-04-09T19:18:47.940Z,49675.19
2023-04-09T19:21:14.642Z,49665.22
2023-04-09T19:23:41.314Z,49687.13
2023-04-09T19:26:08.002Z,49651.25
2023-04-09T19:28:34.814Z,49689.13
2023-04-09T19:31:03.395Z,49635.31
2023-04-09T19:33:30.432Z,49679.16
2023-04-09T19:35:57.270Z,49715.03
2023-04-09T19:38:23.936Z,49703.09
2023-04-09T19:40:50.952Z,49663.22
2023-04-09T19:43:17.600Z,49683.16
2023-04-09T19:45:44.540Z,49711.06
2023-04-09T19:48:12.313Z,49705.06
2023-04-09T19:50:40.984Z,49687.13
2023-04-09T19:53:07.729Z,49697.09
2023-04-09T19:55:34.847Z,49691.13
2023-04-09T19:58:01.934Z,49651.25
2023-04-09T20:00:29.280Z,49675.19
2023-04-09T20:02:57.241Z,49681.16
2023-04-09T20:05:24.231Z,49689.13
2023-04-09T20:07:52.807Z,49683.16
2023-04-09T20:10:19.850Z,49675.19
2023-04-09T20:12:47.935Z,49729.00
2023-04-09T20:15:15.301Z,49683.16
2023-04-09T20:17:42.016Z,49691.13
2023-04-09T20:20:09.266Z,49633.31
2023-04-09T20:22:36.112Z,49701.09
2023-04-09T20:25:02.840Z,49681.16
2023-04-09T20:27:29.537Z,49671.19
2023-04-09T20:29:56.475Z,49703.09
2023-04-09T20:32:23.191Z,49673.19
2023-04-09T20:34:49.888Z,49683.16
2023-04-09T20:37:16.579Z,49717.03
2023-04-09T20:39:43.437Z,49758.91
2023-04-09T20:42:10.176Z,49723.03
2023-04-09T20:44:36.835Z,49691.13
2023-04-09T20:47:03.509Z,49651.25
2023-04-09T20:49:30.194Z,49723.03
2023-04-09T20:51:56.909Z,49691.13
2023-04-09T20:54:23.637Z,49705.06
2023-04-09T20:56:51.360Z,49701.09
2023-04-09T20:59:19.323Z,49691.13
2023-04-09T21:01:46.096Z,49715.03
2023-04-09T21:04:13.173Z,49705.06
2023-04-09T21:06:40.444Z,49687.13
2023-04-09T21:09:07.108Z,49701.09
2023-04-09T21:11:33.802Z,49703.09
2023-04-09T21:14:00.624Z,49683.16
2023-04-09T21:16:28.572Z,49699.09
2023-04-09T21:18:55.652Z,49691.13
2023-04-09T21:21:22.494Z,49707.06
2023-04-09T21:23:49.185Z,49687.13
2023-04-09T21:26:15.874Z,49705.06
2023-04-09T21:28:42.974Z,49729.00
2023-04-09T21:31:11.061Z,49717.03
2023-04-09T21:33:39.286Z,49725.00
2023-04-09T21:36:07.933Z,49695.09
2023-04-09T21:38:34.909Z,49725.00
2023-04-09T21:41:01.890Z,49707.06
2023-04-09T21:43:29.425Z,49679.16
2023-04-09T21:45:57.092Z,49719.03
2023-04-09T21:48:24.168Z,49742.94
2023-04-09T21:50:50.979Z,49669.19
2023-04-09T21:53:17.761Z,49748.94
2023-04-09T21:55:44.610Z,49697.09
2023-04-09T21:58:12.042Z,49691.13
2023-04-09T22:00:38.811Z,49703.09
2023-04-09T22:03:05.647Z,49669.19
2023-04-09T22:05:34.418Z,49707.06
2023-04-09T22:08:01.294Z,49697.09
2023-04-09T22:10:28.456Z,49711.06
2023-04-09T22:12:55.810Z,49715.03
2023-04-09T22:15:22.562Z,49703.09
2023-04-09T22:17:49.344Z,49717.03
2023-04-09T22:20:16.212Z,49750.94
2023-04-09T22:22:43.019Z,49719.03
2023-04-09T22:25:11.645Z,49705.06
2023-04-09T22:27:38.486Z,49691.13
2023-04-09T22:30:06.616Z,49719.03
2023-04-09T22:32:33.587Z,49683.16
2023-04-09T22:35:00.606Z,49679.16
2023-04-09T22:37:27.866Z,49697.09
2023-04-09T22:39:54.596Z,49703.09
2023-04-09T22:42:21.528Z,49734.97
2023-04-09T22:44:48.356Z,49719.03
2023-04-09T22:47:15.123Z,49715.03
2023-04-09T22:49:41.783Z,49715.03
2023-04-09T22:52:08.532Z,49715.03
2023-04-09T22:54:35.499Z,49727.00
2023-04-09T22:57:02.332Z,49713.06
2023-04-09T22:59:38.968Z,49738.97
2023-04-09T23:02:06.705Z,49736.97
2023-04-09T23:04:34.935Z,49711.06
2023-04-09T23:07:02.514Z,49703.09
2023-04-09T23:09:30.984Z,49736.97
2023-04-09T23:11:57.976Z,49715.03
2023-04-09T23:14:24.717Z,49711.06
2023-04-09T23:16:51.401Z,49740.97
2023-04-09T23:19:18.072Z,49679.16
2023-04-09T23:21:44.799Z,49693.13
2023-04-09T23:24:11.568Z,49693.13
2023-04-09T23:26:38.224Z,49719.03
2023-04-09T23:29:04.904Z,49723.03
2023-04-09T23:31:32.109Z,49719.03
2023-04-09T23:33:58.924Z,49711.06
2023-04-09T23:36:26.151Z,49736.97
2023-04-09T23:38:52.819Z,49768.88
2023-04-09T23:41:19.603Z,49754.91
2023-04-09T23:43:46.921Z,49723.03
2023-04-09T23:46:13.625Z,49738.97
2023-04-09T23:48:40.407Z,49742.94
2023-04-09T23:51:07.229Z,49717.03
2023-04-09T23:53:33.883Z,49725.00
2023-04-09T23:56:00.727Z,49725.00
2023-04-09T23:58:27.419Z,49758.91
